sensor_id;sensor_type;location;lat;lon;timestamp;temperature;humidity
67759;SHT31;54562;47.620;18.786;2022-10-31T00:00:00;11.41;93.10
67759;SHT31;54562;47.620;18.786;2022-10-31T00:03:11;11.44;93.13
67759;SHT31;54562;47.620;18.786;2022-10-31T00:06:20;11.48;93.19
67759;SHT31;54562;47.620;18.786;2022-10-31T00:09:29;11.49;93.11
67759;SHT31;54562;47.620;18.786;2022-10-31T00:12:37;11.51;93.11
67759;SHT31;54562;47.620;18.786;2022-10-31T00:15:45;11.53;93.11
67759;SHT31;54562;47.620;18.786;2022-10-31T00:18:54;11.54;93.17
67759;SHT31;54562;47.620;18.786;2022-10-31T00:22:06;11.55;93.18
67759;SHT31;54562;47.620;18.786;2022-10-31T00:25:14;11.57;93.20
67759;SHT31;54562;47.620;18.786;2022-10-31T00:28:24;11.59;93.19
67759;SHT31;54562;47.620;18.786;2022-10-31T00:31:33;11.58;93.18
67759;SHT31;54562;47.620;18.786;2022-10-31T00:34:41;11.58;93.12
67759;SHT31;54562;47.620;18.786;2022-10-31T00:37:49;11.57;93.17
67759;SHT31;54562;47.620;18.786;2022-10-31T00:40:58;11.58;93.18
67759;SHT31;54562;47.620;18.786;2022-10-31T00:44:06;11.57;93.18
67759;SHT31;54562;47.620;18.786;2022-10-31T00:47:14;11.58;93.20
67759;SHT31;54562;47.620;18.786;2022-10-31T00:50:22;11.59;93.20
67759;SHT31;54562;47.620;18.786;2022-10-31T00:53:30;11.60;93.19
67759;SHT31;54562;47.620;18.786;2022-10-31T00:56:38;11.61;93.19
67759;SHT31;54562;47.620;18.786;2022-10-31T00:59:46;11.64;93.19
67759;SHT31;54562;47.620;18.786;2022-10-31T01:02:55;11.65;93.17
67759;SHT31;54562;47.620;18.786;2022-10-31T01:06:05;11.64;93.11
67759;SHT31;54562;47.620;18.786;2022-10-31T01:09:16;11.64;93.10
67759;SHT31;54562;47.620;18.786;2022-10-31T01:12:24;11.64;93.07
67759;SHT31;54562;47.620;18.786;2022-10-31T01:15:32;11.63;93.04
67759;SHT31;54562;47.620;18.786;2022-10-31T01:18:40;11.61;93.00
67759;SHT31;54562;47.620;18.786;2022-10-31T01:21:49;11.57;92.93
67759;SHT31;54562;47.620;18.786;2022-10-31T01:24:59;11.50;92.78
67759;SHT31;54562;47.620;18.786;2022-10-31T01:28:10;11.43;92.71
67759;SHT31;54562;47.620;18.786;2022-10-31T01:31:19;11.36;92.70
67759;SHT31;54562;47.620;18.786;2022-10-31T01:34:31;11.31;92.68
67759;SHT31;54562;47.620;18.786;2022-10-31T01:37:39;11.25;92.62
67759;SHT31;54562;47.620;18.786;2022-10-31T01:40:47;11.22;92.68
67759;SHT31;54562;47.620;18.786;2022-10-31T01:43:56;11.18;92.71
67759;SHT31;54562;47.620;18.786;2022-10-31T01:47:06;11.18;92.78
67759;SHT31;54562;47.620;18.786;2022-10-31T01:50:24;11.22;92.83
67759;SHT31;54562;47.620;18.786;2022-10-31T01:53:37;11.26;92.88
67759;SHT31;54562;47.620;18.786;2022-10-31T01:56:49;11.28;92.90
67759;SHT31;54562;47.620;18.786;2022-10-31T02:00:02;11.33;92.90
67759;SHT31;54562;47.620;18.786;2022-10-31T02:03:15;11.35;92.91
67759;SHT31;54562;47.620;18.786;2022-10-31T02:06:29;11.39;92.92
67759;SHT31;54562;47.620;18.786;2022-10-31T02:09:50;11.41;92.91
67759;SHT31;54562;47.620;18.786;2022-10-31T02:13:03;11.43;92.90
67759;SHT31;54562;47.620;18.786;2022-10-31T02:16:14;11.46;92.88
67759;SHT31;54562;47.620;18.786;2022-10-31T02:19:26;11.44;92.80
67759;SHT31;54562;47.620;18.786;2022-10-31T02:22:52;11.43;92.80
67759;SHT31;54562;47.620;18.786;2022-10-31T02:26:45;11.42;92.79
67759;SHT31;54562;47.620;18.786;2022-10-31T02:30:08;11.42;92.71
67759;SHT31;54562;47.620;18.786;2022-10-31T02:33:22;11.41;92.71
67759;SHT31;54562;47.620;18.786;2022-10-31T02:36:40;11.38;92.63
67759;SHT31;54562;47.620;18.786;2022-10-31T02:40:01;11.34;92.62
67759;SHT31;54562;47.620;18.786;2022-10-31T02:43:25;11.34;92.70
67759;SHT31;54562;47.620;18.786;2022-10-31T02:46:42;11.35;92.70
67759;SHT31;54562;47.620;18.786;2022-10-31T02:50:06;11.32;92.61
67759;SHT31;54562;47.620;18.786;2022-10-31T02:53:33;11.31;92.61
67759;SHT31;54562;47.620;18.786;2022-10-31T02:56:42;11.30;92.62
67759;SHT31;54562;47.620;18.786;2022-10-31T02:59:53;11.30;92.60
67759;SHT31;54562;47.620;18.786;2022-10-31T03:03:06;11.29;92.60
67759;SHT31;54562;47.620;18.786;2022-10-31T03:06:27;11.29;92.60
67759;SHT31;54562;47.620;18.786;2022-10-31T03:09:41;11.28;92.60
67759;SHT31;54562;47.620;18.786;2022-10-31T03:12:59;11.26;92.60
67759;SHT31;54562;47.620;18.786;2022-10-31T03:16:22;11.25;92.64
67759;SHT31;54562;47.620;18.786;2022-10-31T03:19:45;11.27;92.70
67759;SHT31;54562;47.620;18.786;2022-10-31T03:22:59;11.27;92.68
67759;SHT31;54562;47.620;18.786;2022-10-31T03:26:12;11.23;92.62
67759;SHT31;54562;47.620;18.786;2022-10-31T03:29:25;11.22;92.69
67759;SHT31;54562;47.620;18.786;2022-10-31T03:32:40;11.22;92.70
67759;SHT31;54562;47.620;18.786;2022-10-31T03:35:53;11.23;92.70
67759;SHT31;54562;47.620;18.786;2022-10-31T03:39:07;11.23;92.70
67759;SHT31;54562;47.620;18.786;2022-10-31T03:42:23;11.24;92.70
67759;SHT31;54562;47.620;18.786;2022-10-31T03:45:35;11.23;92.70
67759;SHT31;54562;47.620;18.786;2022-10-31T03:48:50;11.21;92.64
67759;SHT31;54562;47.620;18.786;2022-10-31T03:51:59;11.16;92.58
67759;SHT31;54562;47.620;18.786;2022-10-31T03:55:18;11.09;92.53
67759;SHT31;54562;47.620;18.786;2022-10-31T03:58:33;11.05;92.57
67759;SHT31;54562;47.620;18.786;2022-10-31T04:01:50;11.02;92.61
67759;SHT31;54562;47.620;18.786;2022-10-31T04:05:07;10.99;92.62
67759;SHT31;54562;47.620;18.786;2022-10-31T04:08:20;10.96;92.62
67759;SHT31;54562;47.620;18.786;2022-10-31T04:11:34;10.94;92.68
67759;SHT31;54562;47.620;18.786;2022-10-31T04:14:49;10.93;92.70
67759;SHT31;54562;47.620;18.786;2022-10-31T04:18:07;10.94;92.77
67759;SHT31;54562;47.620;18.786;2022-10-31T04:21:28;10.95;92.78
67759;SHT31;54562;47.620;18.786;2022-10-31T04:24:43;10.95;92.80
67759;SHT31;54562;47.620;18.786;2022-10-31T04:27:56;10.95;92.80
67759;SHT31;54562;47.620;18.786;2022-10-31T04:31:05;10.95;92.79
67759;SHT31;54562;47.620;18.786;2022-10-31T04:34:15;10.97;92.85
67759;SHT31;54562;47.620;18.786;2022-10-31T04:37:24;10.98;92.83
67759;SHT31;54562;47.620;18.786;2022-10-31T04:40:35;10.99;92.80
67759;SHT31;54562;47.620;18.786;2022-10-31T04:43:43;10.99;92.80
67759;SHT31;54562;47.620;18.786;2022-10-31T04:46:51;10.99;92.80
67759;SHT31;54562;47.620;18.786;2022-10-31T04:50:01;10.99;92.78
67759;SHT31;54562;47.620;18.786;2022-10-31T04:53:20;10.97;92.72
67759;SHT31;54562;47.620;18.786;2022-10-31T04:56:41;10.96;92.70
67759;SHT31;54562;47.620;18.786;2022-10-31T04:59:50;10.93;92.67
67759;SHT31;54562;47.620;18.786;2022-10-31T05:02:58;10.89;92.69
67759;SHT31;54562;47.620;18.786;2022-10-31T05:06:07;10.90;92.80
67759;SHT31;54562;47.620;18.786;2022-10-31T05:09:15;10.93;92.80
67759;SHT31;54562;47.620;18.786;2022-10-31T05:12:24;10.95;92.82
67759;SHT31;54562;47.620;18.786;2022-10-31T05:15:32;10.97;92.84
67759;SHT31;54562;47.620;18.786;2022-10-31T05:18:40;10.99;92.81
67759;SHT31;54562;47.620;18.786;2022-10-31T05:21:50;11.00;92.80
67759;SHT31;54562;47.620;18.786;2022-10-31T05:25:02;11.01;92.82
67759;SHT31;54562;47.620;18.786;2022-10-31T05:28:11;11.02;92.81
67759;SHT31;54562;47.620;18.786;2022-10-31T05:31:17;10.99;92.80
67759;SHT31;54562;47.620;18.786;2022-10-31T05:34:25;10.98;92.80
67759;SHT31;54562;47.620;18.786;2022-10-31T05:37:33;10.97;92.80
67759;SHT31;54562;47.620;18.786;2022-10-31T05:40:42;10.97;92.84
67759;SHT31;54562;47.620;18.786;2022-10-31T05:43:50;10.98;92.83
67759;SHT31;54562;47.620;18.786;2022-10-31T05:47:06;10.97;92.82
67759;SHT31;54562;47.620;18.786;2022-10-31T05:50:17;10.94;92.76
67759;SHT31;54562;47.620;18.786;2022-10-31T05:53:26;10.93;92.80
67759;SHT31;54562;47.620;18.786;2022-10-31T05:56:34;10.93;92.82
67759;SHT31;54562;47.620;18.786;2022-10-31T05:59:42;10.93;92.80
67759;SHT31;54562;47.620;18.786;2022-10-31T06:02:59;10.94;92.80
67759;SHT31;54562;47.620;18.786;2022-10-31T06:06:11;10.96;92.80
67759;SHT31;54562;47.620;18.786;2022-10-31T06:09:19;10.98;92.80
67759;SHT31;54562;47.620;18.786;2022-10-31T06:12:27;11.02;92.79
67759;SHT31;54562;47.620;18.786;2022-10-31T06:15:42;11.02;92.68
67759;SHT31;54562;47.620;18.786;2022-10-31T06:18:50;11.03;92.67
67759;SHT31;54562;47.620;18.786;2022-10-31T06:22:01;11.03;92.60
67759;SHT31;54562;47.620;18.786;2022-10-31T06:25:09;11.06;92.67
67759;SHT31;54562;47.620;18.786;2022-10-31T06:28:18;11.09;92.70
67759;SHT31;54562;47.620;18.786;2022-10-31T06:31:31;11.09;92.62
67759;SHT31;54562;47.620;18.786;2022-10-31T06:34:41;11.07;92.60
67759;SHT31;54562;47.620;18.786;2022-10-31T06:37:53;11.07;92.60
67759;SHT31;54562;47.620;18.786;2022-10-31T06:41:09;11.09;92.59
67759;SHT31;54562;47.620;18.786;2022-10-31T06:44:18;11.13;92.61
67759;SHT31;54562;47.620;18.786;2022-10-31T06:47:26;11.17;92.57
67759;SHT31;54562;47.620;18.786;2022-10-31T06:50:43;11.18;92.47
67759;SHT31;54562;47.620;18.786;2022-10-31T06:53:51;11.20;92.41
67759;SHT31;54562;47.620;18.786;2022-10-31T06:56:59;11.25;92.49
67759;SHT31;54562;47.620;18.786;2022-10-31T07:00:09;11.26;92.49
67759;SHT31;54562;47.620;18.786;2022-10-31T07:03:18;11.26;92.49
67759;SHT31;54562;47.620;18.786;2022-10-31T07:06:27;11.28;92.50
67759;SHT31;54562;47.620;18.786;2022-10-31T07:09:35;11.27;92.47
67759;SHT31;54562;47.620;18.786;2022-10-31T07:13:00;11.29;92.48
67759;SHT31;54562;47.620;18.786;2022-10-31T07:16:11;11.32;92.53
67759;SHT31;54562;47.620;18.786;2022-10-31T07:19:19;11.35;92.53
67759;SHT31;54562;47.620;18.786;2022-10-31T07:22:32;11.37;92.51
67759;SHT31;54562;47.620;18.786;2022-10-31T07:25:44;11.36;92.53
67759;SHT31;54562;47.620;18.786;2022-10-31T07:28:52;11.35;92.49
67759;SHT31;54562;47.620;18.786;2022-10-31T07:32:02;11.36;92.52
67759;SHT31;54562;47.620;18.786;2022-10-31T07:35:11;11.40;92.61
67759;SHT31;54562;47.620;18.786;2022-10-31T07:38:22;11.45;92.66
67759;SHT31;54562;47.620;18.786;2022-10-31T07:41:30;11.48;92.62
67759;SHT31;54562;47.620;18.786;2022-10-31T07:44:39;11.51;92.63
67759;SHT31;54562;47.620;18.786;2022-10-31T07:47:48;11.50;92.56
67759;SHT31;54562;47.620;18.786;2022-10-31T07:50:57;11.53;92.58
67759;SHT31;54562;47.620;18.786;2022-10-31T07:54:06;11.54;92.51
67759;SHT31;54562;47.620;18.786;2022-10-31T07:57:14;11.57;92.54
67759;SHT31;54562;47.620;18.786;2022-10-31T08:00:27;11.60;92.50
67759;SHT31;54562;47.620;18.786;2022-10-31T08:03:38;11.63;92.45
67759;SHT31;54562;47.620;18.786;2022-10-31T08:06:46;11.66;92.40
67759;SHT31;54562;47.620;18.786;2022-10-31T08:09:52;11.67;92.38
67759;SHT31;54562;47.620;18.786;2022-10-31T08:13:01;11.66;92.26
67759;SHT31;54562;47.620;18.786;2022-10-31T08:16:11;11.65;92.20
67759;SHT31;54562;47.620;18.786;2022-10-31T08:19:19;11.66;92.29
67759;SHT31;54562;47.620;18.786;2022-10-31T08:22:30;11.70;92.37
67759;SHT31;54562;47.620;18.786;2022-10-31T08:25:45;11.73;92.32
67759;SHT31;54562;47.620;18.786;2022-10-31T08:28:53;11.75;92.30
67759;SHT31;54562;47.620;18.786;2022-10-31T08:32:02;11.77;92.22
67759;SHT31;54562;47.620;18.786;2022-10-31T08:35:10;11.81;92.20
67759;SHT31;54562;47.620;18.786;2022-10-31T08:38:19;11.83;92.15
67759;SHT31;54562;47.620;18.786;2022-10-31T08:41:27;11.87;92.18
67759;SHT31;54562;47.620;18.786;2022-10-31T08:44:35;11.88;92.17
67759;SHT31;54562;47.620;18.786;2022-10-31T08:47:43;11.90;92.21
67759;SHT31;54562;47.620;18.786;2022-10-31T08:50:51;11.91;92.22
67759;SHT31;54562;47.620;18.786;2022-10-31T08:54:03;11.93;92.22
67759;SHT31;54562;47.620;18.786;2022-10-31T08:57:11;11.95;92.25
67759;SHT31;54562;47.620;18.786;2022-10-31T09:00:19;11.99;92.30
67759;SHT31;54562;47.620;18.786;2022-10-31T09:03:27;12.02;92.22
67759;SHT31;54562;47.620;18.786;2022-10-31T09:06:37;12.06;92.22
67759;SHT31;54562;47.620;18.786;2022-10-31T09:10:06;12.05;92.12
67759;SHT31;54562;47.620;18.786;2022-10-31T09:13:16;12.04;92.15
67759;SHT31;54562;47.620;18.786;2022-10-31T09:16:30;12.08;92.20
67759;SHT31;54562;47.620;18.786;2022-10-31T09:19:39;12.14;92.28
67759;SHT31;54562;47.620;18.786;2022-10-31T09:22:48;12.18;92.20
67759;SHT31;54562;47.620;18.786;2022-10-31T09:26:04;12.22;92.20
67759;SHT31;54562;47.620;18.786;2022-10-31T09:29:12;12.24;92.20
67759;SHT31;54562;47.620;18.786;2022-10-31T09:32:20;12.24;92.13
67759;SHT31;54562;47.620;18.786;2022-10-31T09:35:28;12.23;92.13
67759;SHT31;54562;47.620;18.786;2022-10-31T09:38:38;12.25;92.20
67759;SHT31;54562;47.620;18.786;2022-10-31T09:41:50;12.26;92.20
67759;SHT31;54562;47.620;18.786;2022-10-31T09:45:13;12.30;92.30
67759;SHT31;54562;47.620;18.786;2022-10-31T09:48:37;12.34;92.28
67759;SHT31;54562;47.620;18.786;2022-10-31T09:51:59;12.36;92.22
67759;SHT31;54562;47.620;18.786;2022-10-31T09:55:15;12.38;92.18
67759;SHT31;54562;47.620;18.786;2022-10-31T09:58:37;12.38;92.12
67759;SHT31;54562;47.620;18.786;2022-10-31T10:01:50;12.39;92.17
67759;SHT31;54562;47.620;18.786;2022-10-31T10:05:04;12.41;92.11
67759;SHT31;54562;47.620;18.786;2022-10-31T10:08:18;12.41;92.07
67759;SHT31;54562;47.620;18.786;2022-10-31T10:11:37;12.46;92.14
67759;SHT31;54562;47.620;18.786;2022-10-31T10:15:05;12.49;92.12
67759;SHT31;54562;47.620;18.786;2022-10-31T10:18:51;12.49;92.04
67759;SHT31;54562;47.620;18.786;2022-10-31T10:22:15;12.52;92.12
67759;SHT31;54562;47.620;18.786;2022-10-31T10:25:37;12.55;92.09
67759;SHT31;54562;47.620;18.786;2022-10-31T10:28:48;12.55;92.02
67759;SHT31;54562;47.620;18.786;2022-10-31T10:32:08;12.55;92.01
67759;SHT31;54562;47.620;18.786;2022-10-31T10:35:25;12.54;91.95
67759;SHT31;54562;47.620;18.786;2022-10-31T10:38:39;12.50;91.90
67759;SHT31;54562;47.620;18.786;2022-10-31T10:41:57;12.51;92.00
67759;SHT31;54562;47.620;18.786;2022-10-31T10:45:29;12.52;92.01
67759;SHT31;54562;47.620;18.786;2022-10-31T10:48:57;12.55;92.10
67759;SHT31;54562;47.620;18.786;2022-10-31T10:52:15;12.57;92.11
67759;SHT31;54562;47.620;18.786;2022-10-31T10:55:50;12.58;92.10
67759;SHT31;54562;47.620;18.786;2022-10-31T10:59:07;12.55;91.96
67759;SHT31;54562;47.620;18.786;2022-10-31T11:02:22;12.55;91.95
67759;SHT31;54562;47.620;18.786;2022-10-31T11:05:36;12.55;92.00
67759;SHT31;54562;47.620;18.786;2022-10-31T11:08:48;12.55;92.00
67759;SHT31;54562;47.620;18.786;2022-10-31T11:11:58;12.57;92.05
67759;SHT31;54562;47.620;18.786;2022-10-31T11:15:19;12.59;92.07
67759;SHT31;54562;47.620;18.786;2022-10-31T11:18:30;12.60;92.07
67759;SHT31;54562;47.620;18.786;2022-10-31T11:21:41;12.58;92.00
67759;SHT31;54562;47.620;18.786;2022-10-31T11:24:56;12.56;91.97
67759;SHT31;54562;47.620;18.786;2022-10-31T11:28:04;12.56;92.00
67759;SHT31;54562;47.620;18.786;2022-10-31T11:31:15;12.57;92.07
67759;SHT31;54562;47.620;18.786;2022-10-31T11:34:30;12.59;92.10
67759;SHT31;54562;47.620;18.786;2022-10-31T11:37:42;12.60;92.11
67759;SHT31;54562;47.620;18.786;2022-10-31T11:40:54;12.61;92.10
67759;SHT31;54562;47.620;18.786;2022-10-31T11:44:18;12.63;92.09
67759;SHT31;54562;47.620;18.786;2022-10-31T11:47:30;12.62;92.07
67759;SHT31;54562;47.620;18.786;2022-10-31T11:50:40;12.61;92.07
67759;SHT31;54562;47.620;18.786;2022-10-31T11:53:55;12.61;92.07
67759;SHT31;54562;47.620;18.786;2022-10-31T11:57:19;12.63;92.10
67759;SHT31;54562;47.620;18.786;2022-10-31T12:00:31;12.63;92.04
67759;SHT31;54562;47.620;18.786;2022-10-31T12:03:48;12.59;92.00
67759;SHT31;54562;47.620;18.786;2022-10-31T12:07:08;12.60;92.03
67759;SHT31;54562;47.620;18.786;2022-10-31T12:10:16;12.60;92.04
67759;SHT31;54562;47.620;18.786;2022-10-31T12:13:42;12.61;92.09
67759;SHT31;54562;47.620;18.786;2022-10-31T12:17:10;12.59;92.07
67759;SHT31;54562;47.620;18.786;2022-10-31T12:20:29;12.61;92.10
67759;SHT31;54562;47.620;18.786;2022-10-31T12:23:57;12.60;92.05
67759;SHT31;54562;47.620;18.786;2022-10-31T12:27:26;12.60;92.02
67759;SHT31;54562;47.620;18.786;2022-10-31T12:30:52;12.56;92.03
67759;SHT31;54562;47.620;18.786;2022-10-31T12:34:31;12.57;92.11
67759;SHT31;54562;47.620;18.786;2022-10-31T12:38:20;12.59;92.10
67759;SHT31;54562;47.620;18.786;2022-10-31T12:41:59;12.60;92.11
67759;SHT31;54562;47.620;18.786;2022-10-31T12:45:27;12.62;92.10
67759;SHT31;54562;47.620;18.786;2022-10-31T12:49:12;12.59;92.01
67759;SHT31;54562;47.620;18.786;2022-10-31T12:52:43;12.60;92.11
67759;SHT31;54562;47.620;18.786;2022-10-31T12:56:12;12.61;92.10
67759;SHT31;54562;47.620;18.786;2022-10-31T12:59:39;12.62;92.10
67759;SHT31;54562;47.620;18.786;2022-10-31T13:02:55;12.60;92.04
67759;SHT31;54562;47.620;18.786;2022-10-31T13:06:19;12.56;92.00
67759;SHT31;54562;47.620;18.786;2022-10-31T13:09:33;12.53;92.03
67759;SHT31;54562;47.620;18.786;2022-10-31T13:12:50;12.51;92.04
67759;SHT31;54562;47.620;18.786;2022-10-31T13:16:07;12.52;92.13
67759;SHT31;54562;47.620;18.786;2022-10-31T13:19:23;12.52;92.13
67759;SHT31;54562;47.620;18.786;2022-10-31T13:22:37;12.50;92.03
67759;SHT31;54562;47.620;18.786;2022-10-31T13:25:49;12.47;92.02
67759;SHT31;54562;47.620;18.786;2022-10-31T13:29:02;12.44;92.06
67759;SHT31;54562;47.620;18.786;2022-10-31T13:32:22;12.45;92.18
67759;SHT31;54562;47.620;18.786;2022-10-31T13:35:35;12.47;92.20
67759;SHT31;54562;47.620;18.786;2022-10-31T13:38:52;12.47;92.20
67759;SHT31;54562;47.620;18.786;2022-10-31T13:42:11;12.47;92.20
67759;SHT31;54562;47.620;18.786;2022-10-31T13:45:31;12.46;92.20
67759;SHT31;54562;47.620;18.786;2022-10-31T13:48:39;12.45;92.23
67759;SHT31;54562;47.620;18.786;2022-10-31T13:51:48;12.45;92.20
67759;SHT31;54562;47.620;18.786;2022-10-31T13:54:56;12.46;92.20
67759;SHT31;54562;47.620;18.786;2022-10-31T13:58:05;12.44;92.18
67759;SHT31;54562;47.620;18.786;2022-10-31T14:01:28;12.43;92.18
67759;SHT31;54562;47.620;18.786;2022-10-31T14:04:44;12.39;92.10
67759;SHT31;54562;47.620;18.786;2022-10-31T14:07:53;12.35;92.13
67759;SHT31;54562;47.620;18.786;2022-10-31T14:11:05;12.31;92.14
67759;SHT31;54562;47.620;18.786;2022-10-31T14:14:41;12.31;92.20
67759;SHT31;54562;47.620;18.786;2022-10-31T14:17:56;12.28;92.20
67759;SHT31;54562;47.620;18.786;2022-10-31T14:21:15;12.27;92.21
67759;SHT31;54562;47.620;18.786;2022-10-31T14:27:47;12.25;92.31
67759;SHT31;54562;47.620;18.786;2022-10-31T14:30:59;12.24;92.30
67759;SHT31;54562;47.620;18.786;2022-10-31T14:34:43;12.26;92.39
67759;SHT31;54562;47.620;18.786;2022-10-31T14:41:43;12.24;92.30
67759;SHT31;54562;47.620;18.786;2022-10-31T14:45:08;12.24;92.30
67759;SHT31;54562;47.620;18.786;2022-10-31T14:48:34;12.23;92.31
67759;SHT31;54562;47.620;18.786;2022-10-31T14:52:06;12.20;92.21
67759;SHT31;54562;47.620;18.786;2022-10-31T14:55:19;12.18;92.27
67759;SHT31;54562;47.620;18.786;2022-10-31T14:58:33;12.19;92.30
67759;SHT31;54562;47.620;18.786;2022-10-31T15:01:50;12.18;92.29
67759;SHT31;54562;47.620;18.786;2022-10-31T15:05:05;12.18;92.29
67759;SHT31;54562;47.620;18.786;2022-10-31T15:08:30;12.17;92.30
67759;SHT31;54562;47.620;18.786;2022-10-31T15:11:42;12.14;92.30
67759;SHT31;54562;47.620;18.786;2022-10-31T15:14:51;12.13;92.29
67759;SHT31;54562;47.620;18.786;2022-10-31T15:17:59;12.11;92.30
67759;SHT31;54562;47.620;18.786;2022-10-31T15:21:10;12.08;92.24
67759;SHT31;54562;47.620;18.786;2022-10-31T15:24:22;12.06;92.25
67759;SHT31;54562;47.620;18.786;2022-10-31T15:27:39;12.01;92.23
67759;SHT31;54562;47.620;18.786;2022-10-31T15:30:52;11.97;92.30
67759;SHT31;54562;47.620;18.786;2022-10-31T15:34:03;11.94;92.31
67759;SHT31;54562;47.620;18.786;2022-10-31T15:37:20;11.90;92.32
67759;SHT31;54562;47.620;18.786;2022-10-31T15:40:30;11.86;92.34
67759;SHT31;54562;47.620;18.786;2022-10-31T15:43:38;11.82;92.39
67759;SHT31;54562;47.620;18.786;2022-10-31T15:46:55;11.80;92.41
67759;SHT31;54562;47.620;18.786;2022-10-31T15:50:18;11.77;92.47
67759;SHT31;54562;47.620;18.786;2022-10-31T15:53:33;11.75;92.51
67759;SHT31;54562;47.620;18.786;2022-10-31T15:56:49;11.75;92.58
67759;SHT31;54562;47.620;18.786;2022-10-31T15:59:57;11.74;92.60
67759;SHT31;54562;47.620;18.786;2022-10-31T16:03:06;11.75;92.60
67759;SHT31;54562;47.620;18.786;2022-10-31T16:06:29;11.73;92.59
67759;SHT31;54562;47.620;18.786;2022-10-31T16:09:47;11.69;92.56
67759;SHT31;54562;47.620;18.786;2022-10-31T16:12:59;11.65;92.59
67759;SHT31;54562;47.620;18.786;2022-10-31T16:16:12;11.61;92.60
67759;SHT31;54562;47.620;18.786;2022-10-31T16:19:37;11.56;92.63
67759;SHT31;54562;47.620;18.786;2022-10-31T16:22:56;11.55;92.70
67759;SHT31;54562;47.620;18.786;2022-10-31T16:26:06;11.51;92.70
67759;SHT31;54562;47.620;18.786;2022-10-31T16:29:23;11.45;92.72
67759;SHT31;54562;47.620;18.786;2022-10-31T16:32:51;11.39;92.79
67759;SHT31;54562;47.620;18.786;2022-10-31T16:39:41;11.31;93.00
67759;SHT31;54562;47.620;18.786;2022-10-31T16:42:49;11.30;93.07
67759;SHT31;54562;47.620;18.786;2022-10-31T16:45:58;11.29;93.10
67759;SHT31;54562;47.620;18.786;2022-10-31T16:49:07;11.30;93.18
67759;SHT31;54562;47.620;18.786;2022-10-31T16:52:16;11.31;93.20
67759;SHT31;54562;47.620;18.786;2022-10-31T16:55:22;11.31;93.26
67759;SHT31;54562;47.620;18.786;2022-10-31T16:58:32;11.31;93.30
67759;SHT31;54562;47.620;18.786;2022-10-31T17:01:43;11.32;93.30
67759;SHT31;54562;47.620;18.786;2022-10-31T17:04:55;11.32;93.30
67759;SHT31;54562;47.620;18.786;2022-10-31T17:08:03;11.30;93.29
67759;SHT31;54562;47.620;18.786;2022-10-31T17:11:13;11.30;93.30
67759;SHT31;54562;47.620;18.786;2022-10-31T17:14:26;11.31;93.33
67759;SHT31;54562;47.620;18.786;2022-10-31T17:17:35;11.31;93.36
67759;SHT31;54562;47.620;18.786;2022-10-31T17:20:44;11.30;93.32
67759;SHT31;54562;47.620;18.786;2022-10-31T17:23:53;11.27;93.32
67759;SHT31;54562;47.620;18.786;2022-10-31T17:27:01;11.27;93.40
67759;SHT31;54562;47.620;18.786;2022-10-31T17:30:10;11.27;93.40
67759;SHT31;54562;47.620;18.786;2022-10-31T17:33:25;11.27;93.43
67759;SHT31;54562;47.620;18.786;2022-10-31T17:36:33;11.30;93.41
67759;SHT31;54562;47.620;18.786;2022-10-31T17:39:42;11.30;93.43
67759;SHT31;54562;47.620;18.786;2022-10-31T17:42:50;11.30;93.42
67759;SHT31;54562;47.620;18.786;2022-10-31T17:46:02;11.32;93.46
67759;SHT31;54562;47.620;18.786;2022-10-31T17:49:11;11.33;93.43
67759;SHT31;54562;47.620;18.786;2022-10-31T17:52:20;11.34;93.41
67759;SHT31;54562;47.620;18.786;2022-10-31T17:55:28;11.33;93.40
67759;SHT31;54562;47.620;18.786;2022-10-31T17:58:39;11.31;93.38
67759;SHT31;54562;47.620;18.786;2022-10-31T18:01:49;11.28;93.35
67759;SHT31;54562;47.620;18.786;2022-10-31T18:04:57;11.25;93.36
67759;SHT31;54562;47.620;18.786;2022-10-31T18:08:05;11.22;93.35
67759;SHT31;54562;47.620;18.786;2022-10-31T18:11:15;11.20;93.38
67759;SHT31;54562;47.620;18.786;2022-10-31T18:14:25;11.15;93.33
67759;SHT31;54562;47.620;18.786;2022-10-31T18:17:33;11.10;93.38
67759;SHT31;54562;47.620;18.786;2022-10-31T18:20:44;11.09;93.43
67759;SHT31;54562;47.620;18.786;2022-10-31T18:23:54;11.07;93.49
67759;SHT31;54562;47.620;18.786;2022-10-31T18:27:08;11.06;93.50
67759;SHT31;54562;47.620;18.786;2022-10-31T18:30:19;11.05;93.50
67759;SHT31;54562;47.620;18.786;2022-10-31T18:33:31;11.03;93.53
67759;SHT31;54562;47.620;18.786;2022-10-31T18:36:41;11.01;93.60
67759;SHT31;54562;47.620;18.786;2022-10-31T18:39:59;11.00;93.60
67759;SHT31;54562;47.620;18.786;2022-10-31T18:43:08;10.98;93.63
67759;SHT31;54562;47.620;18.786;2022-10-31T18:46:17;10.97;93.67
67759;SHT31;54562;47.620;18.786;2022-10-31T18:49:26;10.94;93.68
67759;SHT31;54562;47.620;18.786;2022-10-31T18:52:35;10.91;93.72
67759;SHT31;54562;47.620;18.786;2022-10-31T18:55:43;10.90;93.79
67759;SHT31;54562;47.620;18.786;2022-10-31T18:58:52;10.89;93.86
67759;SHT31;54562;47.620;18.786;2022-10-31T19:02:02;10.90;93.91
67759;SHT31;54562;47.620;18.786;2022-10-31T19:05:11;10.91;93.91
67759;SHT31;54562;47.620;18.786;2022-10-31T19:08:19;10.92;93.95
67759;SHT31;54562;47.620;18.786;2022-10-31T19:11:30;10.92;93.98
67759;SHT31;54562;47.620;18.786;2022-10-31T19:14:39;10.90;93.98
67759;SHT31;54562;47.620;18.786;2022-10-31T19:17:48;10.91;93.99
67759;SHT31;54562;47.620;18.786;2022-10-31T19:20:56;10.90;94.00
67759;SHT31;54562;47.620;18.786;2022-10-31T19:24:08;10.90;93.98
67759;SHT31;54562;47.620;18.786;2022-10-31T19:27:16;10.88;93.92
67759;SHT31;54562;47.620;18.786;2022-10-31T19:30:24;10.89;93.97
67759;SHT31;54562;47.620;18.786;2022-10-31T19:33:33;10.89;93.98
67759;SHT31;54562;47.620;18.786;2022-10-31T19:36:42;10.89;93.93
67759;SHT31;54562;47.620;18.786;2022-10-31T19:39:50;10.88;93.91
67759;SHT31;54562;47.620;18.786;2022-10-31T19:42:58;10.85;93.90
67759;SHT31;54562;47.620;18.786;2022-10-31T19:46:07;10.83;93.91
67759;SHT31;54562;47.620;18.786;2022-10-31T19:49:35;10.80;93.92
67759;SHT31;54562;47.620;18.786;2022-10-31T19:52:43;10.77;93.98
67759;SHT31;54562;47.620;18.786;2022-10-31T19:55:53;10.76;94.00
67759;SHT31;54562;47.620;18.786;2022-10-31T19:59:04;10.76;94.00
67759;SHT31;54562;47.620;18.786;2022-10-31T20:02:12;10.75;94.00
67759;SHT31;54562;47.620;18.786;2022-10-31T20:05:24;10.75;94.00
67759;SHT31;54562;47.620;18.786;2022-10-31T20:08:32;10.75;94.00
67759;SHT31;54562;47.620;18.786;2022-10-31T20:11:42;10.75;94.00